Decoded Metar for RCFN (FENGNIN in TAIWAN) (IATA:TTT) | Meteo·Mobile Aviation Weather
aviador You're here:

RCFN Decoded Metar

FENGNIN in TAIWAN
Report Time2019-02-22 00:00:00
UTC Time2019-02-22 00:16:40
Flight Rules vfr VFR
Wind350° at 04 kt
W.Decomp.*RWY 04: 2.7 kt HW 2.9 kt LCW
W.Rank350° ranks 2
Current wind is below 350° avg. (5.5)
Visibility9999 m
Phenomena:N/A
Clouds:Few 030 Hf
Expected CloudBase > 2,400 ft AGL from Temp-Dew spread
CeilingNone
Temp23°C (ISA +8)
Dew Point17°C (69% RH)
QNH1016 hPa
Density Alt1,257 ft
Elevation138 ft
Report Wrong Elevation
Raw Report
RCFN 220000Z 35004KT 310V040 9999 FEW030 23/17 Q1016 NOSIG RMK
A3002=

Extra information for RCFN:More info

Airport Information Weather charts Add Link Nearby Venues Social comments